createdAt,value
2019-03-06T00:01:00.200Z,5.36
2019-03-06T00:03:30.806Z,5.57
2019-03-06T00:06:02.168Z,5.43
2019-03-06T00:08:32.455Z,5.38
2019-03-06T00:11:02.721Z,5.27
2019-03-06T00:13:33.363Z,5.30
2019-03-06T00:16:04.666Z,4.95
2019-03-06T00:18:34.868Z,5.10
2019-03-06T00:21:06.094Z,4.99
2019-03-06T00:23:36.364Z,5.05
2019-03-06T00:26:06.568Z,4.96
2019-03-06T00:28:36.810Z,4.89
2019-03-06T00:31:07.024Z,4.91
2019-03-06T00:33:38.325Z,4.83
2019-03-06T00:36:11.481Z,4.76
2019-03-06T00:38:41.686Z,4.82
2019-03-06T00:41:13.506Z,4.83
2019-03-06T00:43:43.680Z,4.65
2019-03-06T00:46:14.015Z,4.66
2019-03-06T00:48:44.238Z,4.76
2019-03-06T00:51:14.803Z,4.70
2019-03-06T00:53:45.134Z,4.49
2019-03-06T00:56:15.436Z,4.65
2019-03-06T00:58:45.698Z,4.57
2019-03-06T01:01:16.569Z,4.64
2019-03-06T01:03:46.977Z,4.72
2019-03-06T01:06:17.241Z,4.44
2019-03-06T01:08:47.745Z,4.49
2019-03-06T01:11:17.948Z,4.67
2019-03-06T01:13:48.202Z,4.57
2019-03-06T01:16:18.346Z,4.69
2019-03-06T01:18:48.571Z,4.51
2019-03-06T01:21:18.843Z,4.47
2019-03-06T01:23:49.289Z,4.45
2019-03-06T01:26:19.513Z,4.51
2019-03-06T01:28:49.824Z,4.47
2019-03-06T01:31:20.024Z,4.59
2019-03-06T01:33:51.910Z,4.57
2019-03-06T01:36:23.818Z,4.58
2019-03-06T01:39:01.335Z,4.61
2019-03-06T01:41:51.167Z,4.70
2019-03-06T01:44:23.007Z,4.63
2019-03-06T01:46:53.269Z,4.49
2019-03-06T01:49:23.854Z,4.65
2019-03-06T01:51:54.173Z,4.32
2019-03-06T01:54:24.928Z,4.51
2019-03-06T01:56:55.217Z,4.54
2019-03-06T01:59:25.357Z,4.49
2019-03-06T02:01:56.840Z,4.52
2019-03-06T02:04:27.221Z,4.40
2019-03-06T02:06:57.416Z,4.39
2019-03-06T02:09:27.730Z,4.42
2019-03-06T02:11:58.396Z,4.34
2019-03-06T02:14:28.726Z,4.26
2019-03-06T02:16:58.999Z,4.34
2019-03-06T02:19:29.257Z,4.35
2019-03-06T02:21:59.394Z,4.47
2019-03-06T02:24:29.585Z,4.50
2019-03-06T02:26:59.736Z,4.39
2019-03-06T02:29:29.865Z,4.29
2019-03-06T02:32:00.070Z,4.35
2019-03-06T02:34:30.546Z,4.34
2019-03-06T02:37:00.704Z,4.46
2019-03-06T02:39:30.992Z,4.25
2019-03-06T02:42:01.157Z,4.34
2019-03-06T02:44:31.375Z,4.38
2019-03-06T02:47:02.069Z,4.45
2019-03-06T02:49:32.337Z,4.48
2019-03-06T02:52:03.004Z,4.46
2019-03-06T02:54:33.374Z,4.49
2019-03-06T02:57:03.582Z,4.33
2019-03-06T02:59:35.532Z,4.35
2019-03-06T03:02:22.687Z,4.38
2019-03-06T03:04:54.621Z,4.32
2019-03-06T03:07:25.230Z,4.26
2019-03-06T03:09:55.380Z,4.27
2019-03-06T03:12:25.537Z,4.24
2019-03-06T03:14:55.720Z,4.19
2019-03-06T03:17:25.961Z,4.08
2019-03-06T03:19:56.166Z,4.23
2019-03-06T03:22:26.462Z,4.17
2019-03-06T03:24:56.612Z,4.31
2019-03-06T03:27:26.927Z,4.15
2019-03-06T03:29:57.069Z,4.02
2019-03-06T03:32:27.272Z,4.21
2019-03-06T03:34:57.535Z,4.16
2019-03-06T03:37:27.695Z,4.04
2019-03-06T03:39:58.012Z,4.27
2019-03-06T03:42:28.591Z,4.13
2019-03-06T03:44:58.782Z,4.02
2019-03-06T03:47:29.069Z,4.12
2019-03-06T03:49:59.222Z,4.29
2019-03-06T03:52:30.030Z,4.34
2019-03-06T03:55:00.749Z,4.32
2019-03-06T03:57:30.925Z,4.34
2019-03-06T04:00:01.253Z,4.26
2019-03-06T04:02:33.182Z,4.22
2019-03-06T04:05:04.151Z,4.16
2019-03-06T04:07:34.386Z,4.32
2019-03-06T04:10:06.254Z,4.27
2019-03-06T04:12:36.526Z,4.16
2019-03-06T04:15:18.848Z,4.31
2019-03-06T04:17:50.273Z,4.22
2019-03-06T04:20:23.260Z,4.05
2019-03-06T04:22:53.542Z,4.12
2019-03-06T04:25:23.857Z,4.35
2019-03-06T04:27:54.399Z,4.36
2019-03-06T04:30:24.669Z,4.32
2019-03-06T04:32:54.907Z,4.30
2019-03-06T04:35:36.242Z,4.19
2019-03-06T04:38:15.882Z,4.43
2019-03-06T04:40:58.253Z,4.45
2019-03-06T04:43:34.653Z,4.43
2019-03-06T04:46:04.978Z,4.43
2019-03-06T04:48:35.190Z,4.64
2019-03-06T04:51:06.540Z,4.69
2019-03-06T04:53:38.017Z,4.62
2019-03-06T04:56:09.403Z,4.59
2019-03-06T04:58:39.744Z,4.65
2019-03-06T05:01:10.183Z,4.90
2019-03-06T05:03:46.661Z,4.78
2019-03-06T05:06:21.535Z,4.81
2019-03-06T05:09:00.007Z,4.87
2019-03-06T05:11:40.747Z,4.80
2019-03-06T05:14:14.126Z,4.88
2019-03-06T05:16:50.891Z,4.72
2019-03-06T05:19:21.628Z,5.03
2019-03-06T05:21:54.947Z,5.17
2019-03-06T05:24:25.682Z,5.21
2019-03-06T05:26:57.198Z,5.21
2019-03-06T05:29:33.372Z,5.10
2019-03-06T05:32:24.290Z,5.20
2019-03-06T05:34:55.220Z,5.15
2019-03-06T05:37:37.949Z,4.95
2019-03-06T05:40:08.488Z,5.02
2019-03-06T05:42:39.015Z,5.25
2019-03-06T05:45:15.783Z,5.18
2019-03-06T05:47:46.039Z,5.26
2019-03-06T05:50:16.667Z,5.49
2019-03-06T05:52:47.463Z,5.60
2019-03-06T05:55:18.848Z,5.59
2019-03-06T05:57:52.512Z,5.70
2019-03-06T06:00:28.491Z,5.87
2019-03-06T06:03:04.331Z,6.04
2019-03-06T06:05:35.045Z,6.06
2019-03-06T06:08:07.701Z,6.17
2019-03-06T06:10:38.677Z,6.33
2019-03-06T06:13:12.019Z,6.43
2019-03-06T06:15:42.873Z,6.37
2019-03-06T06:18:15.012Z,6.71
2019-03-06T06:20:53.235Z,6.74
2019-03-06T06:23:40.626Z,6.64
2019-03-06T06:26:13.182Z,7.00
2019-03-06T06:28:43.857Z,7.21
2019-03-06T06:31:14.922Z,7.20
2019-03-06T06:33:45.360Z,7.33
2019-03-06T06:36:17.675Z,7.29
2019-03-06T06:38:49.380Z,7.13
2019-03-06T06:41:20.037Z,7.37
2019-03-06T06:43:50.526Z,7.47
2019-03-06T06:46:25.354Z,7.51
2019-03-06T06:48:56.015Z,7.69
2019-03-06T06:51:40.438Z,7.51
2019-03-06T06:54:16.758Z,7.61
2019-03-06T06:57:12.902Z,7.69
2019-03-06T07:00:07.220Z,7.71
2019-03-06T07:02:52.350Z,7.81
2019-03-06T07:05:30.451Z,7.73
2019-03-06T07:08:08.690Z,7.58
2019-03-06T07:10:42.485Z,7.83
2019-03-06T07:13:37.442Z,7.89
2019-03-06T07:16:34.576Z,7.85
2019-03-06T07:19:10.118Z,7.94
2019-03-06T07:21:45.064Z,8.00
2019-03-06T07:24:35.047Z,7.99
2019-03-06T07:27:23.557Z,8.11
2019-03-06T07:30:10.284Z,8.22
2019-03-06T07:32:45.136Z,8.23
2019-03-06T07:35:50.892Z,8.27
2019-03-06T07:38:24.532Z,8.22
2019-03-06T07:41:05.977Z,8.38
2019-03-06T07:43:53.421Z,8.57
2019-03-06T07:46:26.723Z,8.57
2019-03-06T07:49:02.244Z,8.78
2019-03-06T07:51:34.346Z,8.60
2019-03-06T07:54:23.720Z,8.44
2019-03-06T07:56:59.382Z,8.55
2019-03-06T07:59:29.975Z,8.68
2019-03-06T08:02:02.957Z,8.70
2019-03-06T08:04:33.424Z,8.92
2019-03-06T08:07:08.803Z,9.17
2019-03-06T08:09:43.556Z,9.13
2019-03-06T08:12:19.220Z,9.12
2019-03-06T08:15:08.153Z,9.22
2019-03-06T08:17:46.515Z,9.13
2019-03-06T08:20:18.751Z,9.23
2019-03-06T08:23:09.455Z,9.14
2019-03-06T08:25:45.867Z,9.34
2019-03-06T08:28:16.387Z,9.19
2019-03-06T08:30:52.529Z,9.17
2019-03-06T08:33:23.696Z,9.38
2019-03-06T08:35:54.292Z,9.29
2019-03-06T08:38:24.732Z,9.47
2019-03-06T08:41:03.814Z,9.72
2019-03-06T08:43:27.343Z,9.83
2019-03-06T08:46:05.723Z,9.68
2019-03-06T08:48:37.779Z,9.82
2019-03-06T08:51:20.513Z,9.87
2019-03-06T08:54:09.312Z,10.13
2019-03-06T08:56:41.512Z,9.91
2019-03-06T08:59:31.676Z,10.00
2019-03-06T09:02:22.378Z,10.17
2019-03-06T09:04:56.111Z,10.06
2019-03-06T09:07:31.287Z,10.09
2019-03-06T09:10:19.840Z,10.09
2019-03-06T09:12:52.928Z,10.27
2019-03-06T09:15:27.660Z,10.37
2019-03-06T09:18:08.999Z,10.07
2019-03-06T09:20:40.673Z,10.17
2019-03-06T09:23:22.877Z,10.30
2019-03-06T09:25:55.456Z,10.33
2019-03-06T09:28:43.825Z,10.60
2019-03-06T09:31:24.304Z,10.48
2019-03-06T09:34:12.958Z,10.67
2019-03-06T09:37:03.472Z,10.58
2019-03-06T09:39:38.216Z,10.76
2019-03-06T09:42:19.267Z,10.63
2019-03-06T09:44:54.166Z,10.85
2019-03-06T09:47:35.105Z,10.69
2019-03-06T09:50:25.706Z,10.46
2019-03-06T09:52:57.802Z,10.50
2019-03-06T09:55:29.892Z,10.72
2019-03-06T09:58:04.600Z,10.84
2019-03-06T10:00:48.592Z,11.01
2019-03-06T10:03:36.698Z,10.83
2019-03-06T10:06:11.499Z,10.70
2019-03-06T10:08:52.502Z,10.52
2019-03-06T10:11:24.617Z,10.59
2019-03-06T10:14:02.526Z,10.62
2019-03-06T10:16:34.580Z,10.45
2019-03-06T10:19:06.553Z,10.49
2019-03-06T10:21:37.167Z,10.56
2019-03-06T10:24:07.354Z,10.79
2019-03-06T10:26:37.781Z,10.81
2019-03-06T10:29:08.080Z,10.80
2019-03-06T10:31:39.518Z,10.69
2019-03-06T10:34:09.775Z,10.90
2019-03-06T10:36:39.969Z,10.89
2019-03-06T10:39:10.928Z,10.95
2019-03-06T10:41:42.368Z,11.01
2019-03-06T10:44:13.063Z,10.79
2019-03-06T10:46:43.490Z,10.70
2019-03-06T10:49:13.745Z,10.62
2019-03-06T10:51:44.304Z,10.80
2019-03-06T10:54:15.686Z,10.78
2019-03-06T10:56:45.942Z,10.84
2019-03-06T10:59:16.242Z,10.92
2019-03-06T11:01:46.857Z,10.80
2019-03-06T11:04:18.952Z,10.79
2019-03-06T11:06:49.321Z,10.90
2019-03-06T11:09:19.583Z,10.85
2019-03-06T11:11:50.013Z,10.87
2019-03-06T11:14:24.369Z,10.86
2019-03-06T11:16:55.957Z,10.96
2019-03-06T11:19:28.685Z,10.93
2019-03-06T11:22:00.603Z,11.02
2019-03-06T11:24:30.937Z,11.10
2019-03-06T11:27:04.488Z,11.23
2019-03-06T11:29:34.887Z,11.08
2019-03-06T11:32:05.224Z,10.93
2019-03-06T11:34:36.646Z,10.90
2019-03-06T11:37:07.386Z,10.99
2019-03-06T11:39:37.613Z,10.95
2019-03-06T11:42:07.971Z,10.85
2019-03-06T11:44:38.364Z,10.90
2019-03-06T11:47:09.206Z,10.93
2019-03-06T11:49:39.936Z,10.88
2019-03-06T11:52:11.975Z,10.86
2019-03-06T11:54:42.404Z,10.96
2019-03-06T11:57:12.718Z,10.87
2019-03-06T11:59:43.699Z,10.83
2019-03-06T12:02:14.265Z,10.87
2019-03-06T12:04:45.003Z,10.94
2019-03-06T12:07:15.454Z,10.80
2019-03-06T12:09:45.771Z,10.98
2019-03-06T12:12:16.142Z,10.94
2019-03-06T12:14:46.432Z,10.98
2019-03-06T12:17:16.773Z,11.07
2019-03-06T12:19:47.246Z,10.99
2019-03-06T12:22:17.680Z,11.04
2019-03-06T12:24:47.923Z,11.18
2019-03-06T12:27:18.255Z,10.90
2019-03-06T12:29:48.841Z,11.03
2019-03-06T12:32:19.317Z,10.99
2019-03-06T12:34:49.710Z,10.99
2019-03-06T12:37:20.102Z,10.99
2019-03-06T12:39:50.492Z,10.96
2019-03-06T12:42:20.918Z,11.06
2019-03-06T12:44:51.347Z,11.24
2019-03-06T12:47:21.665Z,11.15
2019-03-06T12:49:51.959Z,11.13
2019-03-06T12:52:22.613Z,11.07
2019-03-06T12:54:53.094Z,11.01
2019-03-06T12:57:23.490Z,11.18
2019-03-06T12:59:53.993Z,11.34
2019-03-06T13:02:24.679Z,11.29
2019-03-06T13:04:55.032Z,11.25
2019-03-06T13:07:25.351Z,11.27
2019-03-06T13:09:55.668Z,11.33
2019-03-06T13:12:26.009Z,11.58
2019-03-06T13:14:56.297Z,11.65
2019-03-06T13:17:26.645Z,11.46
2019-03-06T13:19:57.192Z,11.39
2019-03-06T13:22:27.820Z,11.43
2019-03-06T13:24:58.174Z,11.36
2019-03-06T13:27:28.453Z,11.32
2019-03-06T13:29:58.800Z,11.40
2019-03-06T13:32:30.781Z,11.50
2019-03-06T13:35:01.575Z,11.50
2019-03-06T13:37:31.904Z,11.44
2019-03-06T13:40:03.383Z,11.30
2019-03-06T13:42:35.050Z,11.30
2019-03-06T13:45:05.789Z,11.20
2019-03-06T13:47:36.114Z,11.09
2019-03-06T13:50:07.871Z,10.94
2019-03-06T13:52:38.302Z,10.83
2019-03-06T13:55:13.059Z,10.80
2019-03-06T13:57:51.053Z,10.87
2019-03-06T14:00:24.478Z,10.91
2019-03-06T14:02:55.002Z,11.01
2019-03-06T14:05:25.307Z,10.98
2019-03-06T14:07:56.762Z,11.03
2019-03-06T14:10:27.305Z,11.05
2019-03-06T14:12:57.870Z,10.91
2019-03-06T14:15:28.184Z,10.89
2019-03-06T14:17:58.616Z,10.77
2019-03-06T14:20:29.022Z,10.77
2019-03-06T14:22:59.562Z,10.79
2019-03-06T14:25:30.422Z,10.80
2019-03-06T14:28:00.664Z,10.69
2019-03-06T14:30:35.260Z,10.58
2019-03-06T14:33:05.993Z,10.40
2019-03-06T14:35:36.294Z,10.31
2019-03-06T14:38:07.179Z,10.21
2019-03-06T14:40:37.438Z,10.16
2019-03-06T14:43:08.291Z,10.16
2019-03-06T14:45:38.702Z,10.16
2019-03-06T14:48:09.259Z,10.09
2019-03-06T14:50:39.803Z,10.07
2019-03-06T14:53:10.664Z,10.07
2019-03-06T14:55:40.933Z,10.03
2019-03-06T14:58:11.265Z,10.04
2019-03-06T15:01:00.000Z,9.98
2019-03-06T15:03:30.771Z,10.01
2019-03-06T15:06:00.969Z,9.96
2019-03-06T15:08:31.401Z,10.01
2019-03-06T15:11:10.222Z,10.02
2019-03-06T15:13:47.188Z,10.06
2019-03-06T15:16:18.268Z,10.06
2019-03-06T15:18:48.650Z,10.08
2019-03-06T15:21:18.996Z,10.09
2019-03-06T15:23:49.210Z,10.11
2019-03-06T15:26:19.634Z,10.10
2019-03-06T15:28:56.130Z,10.00
2019-03-06T15:31:28.546Z,9.90
2019-03-06T15:34:01.519Z,9.79
2019-03-06T15:36:32.714Z,9.74
2019-03-06T15:39:04.349Z,9.74
2019-03-06T15:41:35.758Z,9.67
2019-03-06T15:44:06.060Z,9.73
2019-03-06T15:46:36.353Z,9.74
2019-03-06T15:49:07.019Z,9.73
2019-03-06T15:51:37.714Z,9.77
2019-03-06T15:54:09.440Z,9.74
2019-03-06T15:56:40.238Z,9.59
2019-03-06T15:59:14.820Z,9.70
2019-03-06T16:01:43.864Z,9.84
2019-03-06T16:04:14.393Z,9.74
2019-03-06T16:06:53.585Z,9.73
2019-03-06T16:09:16.511Z,9.72
2019-03-06T16:11:47.013Z,9.66
2019-03-06T16:14:18.955Z,9.76
2019-03-06T16:16:49.202Z,9.61
2019-03-06T16:19:19.588Z,9.53
2019-03-06T16:21:49.985Z,9.46
2019-03-06T16:24:21.270Z,9.41
2019-03-06T16:26:51.814Z,9.42
2019-03-06T16:29:23.903Z,9.45
2019-03-06T16:31:54.539Z,9.55
2019-03-06T16:34:27.196Z,9.59
2019-03-06T16:36:59.378Z,9.60
2019-03-06T16:39:29.815Z,9.71
2019-03-06T16:42:00.264Z,9.67
2019-03-06T16:44:30.470Z,9.68
2019-03-06T16:47:06.595Z,9.61
2019-03-06T16:49:32.797Z,9.61
2019-03-06T16:52:03.180Z,9.65
2019-03-06T16:54:33.778Z,9.59
2019-03-06T16:57:04.351Z,9.57
2019-03-06T16:59:39.401Z,9.59
2019-03-06T17:02:16.553Z,9.65
2019-03-06T17:04:47.219Z,9.64
2019-03-06T17:07:32.488Z,9.63
2019-03-06T17:10:01.022Z,9.57
2019-03-06T17:12:37.977Z,9.51
2019-03-06T17:15:09.432Z,9.54
2019-03-06T17:17:40.139Z,9.52
2019-03-06T17:20:14.629Z,9.56
2019-03-06T17:22:52.915Z,9.50
2019-03-06T17:25:28.378Z,9.50
2019-03-06T17:28:00.651Z,9.42
2019-03-06T17:30:32.282Z,9.42
2019-03-06T17:33:03.921Z,9.37
2019-03-06T17:35:36.259Z,9.32
2019-03-06T17:38:13.374Z,9.20
2019-03-06T17:40:44.207Z,9.13
2019-03-06T17:43:14.498Z,9.13
2019-03-06T17:45:47.907Z,9.22
2019-03-06T17:48:22.403Z,9.04
2019-03-06T17:50:54.382Z,9.09
2019-03-06T17:53:24.772Z,8.95
2019-03-06T17:55:55.238Z,8.99
2019-03-06T17:58:30.248Z,8.83
2019-03-06T18:01:02.783Z,8.78
2019-03-06T18:03:34.864Z,8.76
2019-03-06T18:06:05.252Z,8.77
2019-03-06T18:08:36.667Z,8.66
2019-03-06T18:11:10.641Z,8.61
2019-03-06T18:13:41.075Z,8.50
2019-03-06T18:16:11.604Z,8.54
2019-03-06T18:18:42.450Z,8.48
2019-03-06T18:21:13.303Z,8.42
2019-03-06T18:23:43.683Z,8.34
2019-03-06T18:26:14.007Z,8.35
2019-03-06T18:28:46.010Z,8.34
2019-03-06T18:31:16.357Z,8.35
2019-03-06T18:33:46.771Z,8.44
2019-03-06T18:36:19.353Z,8.54
2019-03-06T18:38:54.916Z,8.61
2019-03-06T18:41:25.795Z,8.64
2019-03-06T18:43:56.267Z,8.65
2019-03-06T18:46:26.705Z,8.56
2019-03-06T18:48:57.232Z,8.52
2019-03-06T18:51:28.089Z,8.49
2019-03-06T18:54:01.573Z,8.57
2019-03-06T18:56:35.064Z,8.62
2019-03-06T18:59:18.495Z,8.54
2019-03-06T19:01:50.255Z,8.43
2019-03-06T19:04:26.561Z,8.23
2019-03-06T19:06:59.042Z,8.00
2019-03-06T19:09:30.063Z,7.83
2019-03-06T19:12:00.972Z,7.65
2019-03-06T19:14:33.149Z,7.53
2019-03-06T19:17:03.452Z,7.50
2019-03-06T19:19:37.081Z,7.44
2019-03-06T19:22:07.950Z,7.41
2019-03-06T19:24:39.504Z,7.42
2019-03-06T19:27:14.528Z,7.32
2019-03-06T19:29:48.273Z,7.31
2019-03-06T19:32:19.029Z,7.24
2019-03-06T19:34:51.001Z,7.22
2019-03-06T19:37:24.492Z,7.14
2019-03-06T19:39:54.848Z,7.04
2019-03-06T19:42:25.229Z,6.80
2019-03-06T19:45:00.316Z,6.65
2019-03-06T19:47:30.934Z,6.54
2019-03-06T19:50:01.258Z,6.40
2019-03-06T19:52:34.171Z,6.25
2019-03-06T19:55:14.724Z,6.12
2019-03-06T19:57:49.092Z,5.99
2019-03-06T20:00:34.278Z,5.89
2019-03-06T20:03:06.476Z,5.78
2019-03-06T20:05:41.447Z,5.72
2019-03-06T20:08:15.313Z,5.65
2019-03-06T20:10:46.139Z,5.67
2019-03-06T20:13:22.050Z,5.66
2019-03-06T20:15:55.537Z,5.66
2019-03-06T20:18:26.360Z,5.55
2019-03-06T20:20:57.120Z,5.50
2019-03-06T20:23:28.143Z,5.48
2019-03-06T20:25:58.469Z,5.42
2019-03-06T20:28:28.734Z,5.32
2019-03-06T20:31:08.930Z,5.28
2019-03-06T20:33:57.137Z,5.19
2019-03-06T20:36:27.439Z,5.09
2019-03-06T20:38:58.099Z,5.02
2019-03-06T20:41:28.986Z,4.93
2019-03-06T20:43:59.713Z,4.86
2019-03-06T20:46:30.085Z,4.88
2019-03-06T20:49:01.915Z,4.72
2019-03-06T20:51:32.626Z,4.66
2019-03-06T20:54:15.208Z,4.66
2019-03-06T20:56:50.142Z,4.70
2019-03-06T20:59:20.684Z,4.65
2019-03-06T21:01:56.416Z,4.76
2019-03-06T21:04:27.188Z,4.67
2019-03-06T21:06:57.707Z,4.75
2019-03-06T21:09:33.271Z,4.68
2019-03-06T21:12:04.468Z,4.66
2019-03-06T21:14:34.798Z,4.55
2019-03-06T21:17:05.831Z,4.47
2019-03-06T21:19:39.470Z,4.53
2019-03-06T21:22:12.076Z,4.56
2019-03-06T21:24:43.737Z,4.54
2019-03-06T21:27:16.340Z,4.39
2019-03-06T21:29:46.758Z,4.47
2019-03-06T21:32:17.529Z,4.41
2019-03-06T21:34:48.379Z,4.53
2019-03-06T21:37:18.962Z,4.39
2019-03-06T21:39:49.460Z,4.31
2019-03-06T21:42:23.821Z,4.36
2019-03-06T21:44:54.624Z,4.41
2019-03-06T21:47:29.892Z,4.34
2019-03-06T21:50:10.638Z,4.39
2019-03-06T21:52:41.242Z,4.33
2019-03-06T21:55:24.077Z,4.30
2019-03-06T21:57:57.528Z,4.35
2019-03-06T22:00:34.995Z,4.49
2019-03-06T22:03:15.013Z,4.58
2019-03-06T22:05:54.069Z,4.51
2019-03-06T22:08:31.707Z,4.64
2019-03-06T22:11:15.378Z,4.64
2019-03-06T22:13:52.528Z,4.82
2019-03-06T22:33:21.260Z,4.30
2019-03-06T22:35:51.470Z,4.14
2019-03-06T22:38:25.749Z,4.16
2019-03-06T22:40:57.720Z,4.05
2019-03-06T22:43:39.252Z,3.96
2019-03-06T22:46:21.167Z,3.89
2019-03-06T22:49:07.618Z,3.82
2019-03-06T22:51:38.514Z,3.83
2019-03-06T22:54:14.785Z,3.71
2019-03-06T22:56:49.586Z,3.64
2019-03-06T22:59:23.425Z,3.60
2019-03-06T23:01:57.598Z,3.48
2019-03-06T23:04:33.905Z,3.40
2019-03-06T23:07:05.494Z,3.35
2019-03-06T23:09:35.942Z,3.36
2019-03-06T23:12:08.203Z,3.33
2019-03-06T23:14:45.757Z,3.26
2019-03-06T23:17:22.301Z,3.24
2019-03-06T23:19:52.768Z,3.23
2019-03-06T23:22:23.362Z,3.35
2019-03-06T23:24:55.758Z,3.39
2019-03-06T23:27:26.462Z,3.21
2019-03-06T23:29:57.128Z,3.07
2019-03-06T23:32:30.134Z,3.11
2019-03-06T23:35:06.445Z,3.43
2019-03-06T23:37:38.137Z,3.43
2019-03-06T23:40:11.917Z,3.55
2019-03-06T23:42:48.223Z,3.50
2019-03-06T23:45:18.970Z,3.23
2019-03-06T23:47:52.840Z,3.22
2019-03-06T23:50:23.862Z,3.14
2019-03-06T23:53:10.772Z,3.04
2019-03-06T23:55:42.765Z,3.03
2019-03-06T23:58:17.504Z,3.03
